This is the latest recevied weather packets stored in our database for station/object N0SWP-3. If no packets are shown the sender has not sent any weather packets the latest 10 day(s).
| Time | Temp. | Humidity | Pressure | Rain* | Wind** | Luminosity | Snow |
|---|---|---|---|---|---|---|---|
| 1777744084 | 17.22° C | 42% | 1022.2 hPa | 0 mm | - | - | - |
| 1777743903 | 16.67° C | 42% | 1022.3 hPa | 0 mm | - | - | - |
| 1777743364 | 16.11° C | 41% | 1022.2 hPa | 0 mm | - | - | - |
| 1777742957 | 15.56° C | 43% | 1022.3 hPa | 0 mm | - | - | - |
| 1777741923 | 15.56° C | 42% | 1022.3 hPa | 0 mm | - | - | - |
| 1777741744 | 16.11° C | 42% | 1022.3 hPa | 0 mm | - | - | - |
| 1777739584 | 16.11° C | 42% | 1022.5 hPa | 0 mm | - | - | - |
| 1777739044 | 14.44° C | 47% | 1022.5 hPa | 0 mm | - | - | - |
| 1777738863 | 14.44° C | 45% | 1022.5 hPa | 0 mm | - | - | - |
| 1777738324 | 14.44° C | 46% | 1022.6 hPa | 0 mm | - | - | - |
| 1777737784 | 14.44° C | 47% | 1022.5 hPa | 0 mm | - | - | - |
| 1777735804 | 12.78° C | 52% | 1022.6 hPa | 0 mm | - | - | - |
| 1777734724 | 12.22° C | 58% | 1022.5 hPa | 0 mm | - | - | - |
| 1777733824 | 12.22° C | 57% | 1022.4 hPa | 0 mm | - | - | - |
| 1777732924 | 11.67° C | 56% | 1022.3 hPa | 0 mm | - | - | - |
| 1777732203 | 11.67° C | 59% | 1022.3 hPa | 0 mm | - | - | - |
| 1777731664 | 11.11° C | 59% | 1022.3 hPa | 0 mm | - | - | - |
| 1777731483 | 10.56° C | 61% | 1022.3 hPa | 0 mm | - | - | - |
| 1777730404 | 10° C | 61% | 1022.2 hPa | 0 mm | - | - | - |
| 1777730044 | 10° C | 61% | 1022.2 hPa | 0 mm | - | - | - |
| 1777729637 | 9.44° C | 62% | 1022.1 hPa | 0 mm | - | - | - |
| 1777728964 | 8.89° C | 62% | 1022.1 hPa | 0 mm | - | - | - |
| 1777726263 | 6.11° C | 74% | 1021.8 hPa | 0 mm | - | - | - |
| 1777724104 | 4.44° C | 80% | 1021.4 hPa | 0 mm | - | - | - |
| 1777723338 | 3.89° C | 81% | 1021.2 hPa | 0 mm | - | - | - |
* Rain latest hour (hover to see other rain measurements)
** Current wind speed in m/s (hover to see current wind gust speed)